Skip Navigation Links Skip Navigation Links

Current Weather

Cambridge Bay Apt, Cambridge Bay, N.T.

For information only: do not use for flight planning or navigation.
Latest weather
Observation time Friday, May 25, 2018 6:00 AM MDT
Local time Friday, May 25, 2018 6:41 AM MDT
Flight conditions Low Instrument Meteorological Conditions
Winds
Wind direction East-Southeast (120°)
Wind speed 7 mph
Visibility 1.5 mi.
Present weather mist
Sky condition
Ceiling 300 ft. broken clouds
Cloud layer broken clouds 300 ft.
Cloud layer overcast 900 ft.
Temperature 12°F
Dewpoint 10°F
Altimeter 30.19 in.Hg
Derived measurements
Relative humidity 92%
Wind chill 2°F
Density altitude -3441 ft.
Sea-level pressure 30.21 in.Hg
Remarks
Visibility.
METAR CYCB 251200Z 12006KT 1 1/2SM BR BKN003 OVC009 M11/M12 A3019 RMK FG1SF6SC1 VIS VRB 1-2 SLP230

Settings

Location code

InnerDrive.Weather 4.0.6615.0 Release CLR 4.0.30319.42000
Copyright ©2018 Inner Drive Technology. All rights reserved. Portions Copyright ©1986-2018 David Braverman.

Find weather

Site navigation


Skip Navigation Links

Place info

Page info

PayPal - The safer, easier way to pay online!

Return home.

Copyright ©2018 Inner Drive Technology. Purveyors of fine, hand-crafted computer software. Page printed 2018-05-25T12:41:07 UTC.